createdAt,value
2018-12-09T00:02:23.877Z,71.97
2018-12-09T00:04:52.035Z,71.60
2018-12-09T00:07:20.251Z,70.92
2018-12-09T00:09:48.396Z,70.86
2018-12-09T00:12:16.553Z,69.78
2018-12-09T00:14:44.609Z,70.06
2018-12-09T00:17:12.689Z,69.42
2018-12-09T00:19:40.747Z,69.46
2018-12-09T00:22:08.849Z,70.23
2018-12-09T00:24:36.974Z,70.76
2018-12-09T00:27:05.167Z,69.44
2018-12-09T00:29:33.302Z,70.21
2018-12-09T00:32:01.422Z,71.14
2018-12-09T00:34:29.536Z,70.35
2018-12-09T00:36:57.574Z,70.00
2018-12-09T00:39:25.709Z,69.73
2018-12-09T00:41:53.761Z,70.30
2018-12-09T00:44:21.805Z,66.92
2018-12-09T00:46:50.026Z,69.47
2018-12-09T00:49:18.134Z,66.64
2018-12-09T00:51:46.208Z,67.06
2018-12-09T00:54:14.284Z,66.74
2018-12-09T00:56:42.447Z,66.63
2018-12-09T00:59:10.510Z,65.59
2018-12-09T01:01:38.564Z,64.68
2018-12-09T01:04:06.697Z,66.83
2018-12-09T01:06:34.813Z,65.58
2018-12-09T01:09:03.245Z,68.16
2018-12-09T01:11:31.496Z,67.24
2018-12-09T01:13:59.599Z,66.17
2018-12-09T01:16:27.710Z,66.04
2018-12-09T01:18:55.885Z,68.21
2018-12-09T01:21:24.002Z,67.88
2018-12-09T01:23:52.029Z,73.20
2018-12-09T01:26:20.174Z,70.03
2018-12-09T01:28:48.230Z,73.17
2018-12-09T01:31:16.460Z,70.14
2018-12-09T01:33:44.581Z,75.28
2018-12-09T01:36:12.694Z,71.44
2018-12-09T01:38:41.029Z,69.63
2018-12-09T01:41:09.254Z,70.37
2018-12-09T01:43:37.303Z,70.27
2018-12-09T01:46:05.429Z,71.30
2018-12-09T01:48:33.527Z,68.20
2018-12-09T01:51:01.783Z,70.87
2018-12-09T01:54:38.323Z,70.44
2018-12-09T01:57:06.559Z,68.00
2018-12-09T01:59:34.724Z,72.19
2018-12-09T02:02:02.960Z,69.92
2018-12-09T02:04:31.156Z,66.76
2018-12-09T02:06:59.307Z,67.70
2018-12-09T02:09:27.463Z,69.29
2018-12-09T02:11:55.567Z,71.23
2018-12-09T02:14:23.607Z,70.59
2018-12-09T02:16:51.817Z,69.42
2018-12-09T02:19:22.897Z,71.16
2018-12-09T02:21:51.321Z,68.75
2018-12-09T02:24:20.097Z,67.50
2018-12-09T02:26:48.206Z,67.30
2018-12-09T02:29:16.338Z,68.13
2018-12-09T02:31:44.543Z,65.27
2018-12-09T02:34:12.652Z,71.03
2018-12-09T02:36:40.771Z,71.19
2018-12-09T02:39:10.221Z,67.86
2018-12-09T02:41:38.426Z,68.64
2018-12-09T02:44:06.531Z,68.98
2018-12-09T02:46:34.950Z,71.04
2018-12-09T02:49:03.227Z,71.80
2018-12-09T02:51:31.400Z,70.54
2018-12-09T02:53:59.595Z,71.51
2018-12-09T02:56:27.681Z,68.97
2018-12-09T02:58:55.890Z,69.82
2018-12-09T03:01:24.072Z,71.03
2018-12-09T03:03:52.306Z,70.27
2018-12-09T03:06:20.409Z,68.46
2018-12-09T03:08:48.437Z,71.96
2018-12-09T03:11:16.502Z,69.68
2018-12-09T03:13:44.546Z,71.90
2018-12-09T03:18:54.437Z,72.38
2018-12-09T03:21:22.520Z,72.86
2018-12-09T03:23:50.742Z,71.73
2018-12-09T03:26:18.789Z,71.61
2018-12-09T03:28:46.967Z,70.88
2018-12-09T03:31:15.020Z,70.19
2018-12-09T03:33:43.218Z,69.13
2018-12-09T03:36:11.380Z,67.65
2018-12-09T03:38:39.415Z,68.67
2018-12-09T03:41:07.670Z,70.51
2018-12-09T03:43:35.766Z,66.31
2018-12-09T03:46:03.926Z,68.26
2018-12-09T03:48:32.103Z,71.92
2018-12-09T03:51:00.207Z,67.19
2018-12-09T03:53:28.289Z,66.59
2018-12-09T03:55:56.418Z,67.20
2018-12-09T03:58:24.533Z,67.45
2018-12-09T04:01:04.691Z,68.78
2018-12-09T04:03:32.754Z,68.21
2018-12-09T04:06:00.982Z,67.14
2018-12-09T04:08:29.115Z,68.04
2018-12-09T04:10:57.357Z,67.07
2018-12-09T04:13:25.489Z,67.29
2018-12-09T04:15:53.832Z,68.03
2018-12-09T04:18:22.082Z,65.95
2018-12-09T04:20:50.150Z,65.88
2018-12-09T04:23:20.053Z,68.37
2018-12-09T04:25:48.224Z,67.49
2018-12-09T04:28:16.398Z,66.77
2018-12-09T04:30:44.507Z,67.06
2018-12-09T04:33:12.655Z,66.03
2018-12-09T04:35:40.832Z,68.01
2018-12-09T04:38:08.878Z,68.71
2018-12-09T04:40:37.014Z,67.34
2018-12-09T04:43:05.225Z,68.09
2018-12-09T04:45:33.354Z,68.55
2018-12-09T04:48:01.411Z,65.36
2018-12-09T04:50:29.548Z,66.72
2018-12-09T04:52:57.657Z,68.43
2018-12-09T04:55:25.868Z,66.50
2018-12-09T05:00:32.530Z,66.90
2018-12-09T05:03:00.582Z,68.31
2018-12-09T05:05:28.847Z,67.80
2018-12-09T05:07:56.977Z,68.23
2018-12-09T05:10:25.093Z,68.71
2018-12-09T05:12:53.291Z,67.08
2018-12-09T05:15:21.398Z,68.24
2018-12-09T05:17:49.502Z,70.21
2018-12-09T05:20:17.666Z,70.32
2018-12-09T05:22:45.883Z,71.67
2018-12-09T05:25:14.399Z,70.83
2018-12-09T05:27:42.506Z,69.56
2018-12-09T05:30:10.658Z,70.91
2018-12-09T05:32:38.795Z,72.15
2018-12-09T05:35:06.953Z,72.57
2018-12-09T05:37:35.355Z,70.09
2018-12-09T05:40:03.640Z,70.26
2018-12-09T05:42:31.789Z,70.54
2018-12-09T05:45:00.101Z,67.79
2018-12-09T05:47:28.248Z,72.32
2018-12-09T05:49:56.504Z,70.88
2018-12-09T05:52:24.612Z,73.01
2018-12-09T05:54:52.665Z,70.11
2018-12-09T05:57:21.701Z,72.26
2018-12-09T05:59:49.891Z,72.14
2018-12-09T06:02:29.329Z,69.86
2018-12-09T06:04:57.558Z,69.98
2018-12-09T06:07:25.707Z,69.85
2018-12-09T06:09:53.840Z,71.71
2018-12-09T06:12:22.194Z,69.72
2018-12-09T06:14:50.445Z,69.85
2018-12-09T06:17:18.601Z,71.43
2018-12-09T06:19:46.650Z,73.41
2018-12-09T06:22:15.800Z,74.17
2018-12-09T06:24:43.926Z,72.24
2018-12-09T06:27:13.265Z,69.93
2018-12-09T06:29:41.354Z,68.98
2018-12-09T06:32:10.394Z,70.47
2018-12-09T06:34:38.441Z,68.17
2018-12-09T06:37:06.503Z,68.15
2018-12-09T06:39:34.559Z,69.56
2018-12-09T06:42:02.606Z,70.68
2018-12-09T06:44:30.745Z,72.95
2018-12-09T06:46:58.801Z,72.22
2018-12-09T06:49:26.879Z,69.57
2018-12-09T06:51:54.987Z,72.25
2018-12-09T06:54:23.279Z,71.49
2018-12-09T06:56:51.480Z,70.86
2018-12-09T06:59:19.534Z,70.78
2018-12-09T07:01:47.597Z,71.76
2018-12-09T07:04:15.741Z,73.75
2018-12-09T07:06:43.901Z,72.07
2018-12-09T07:09:11.948Z,70.13
2018-12-09T07:11:40.177Z,71.61
2018-12-09T07:14:08.543Z,71.10
2018-12-09T07:16:36.644Z,70.84
2018-12-09T07:19:04.789Z,67.72
2018-12-09T07:21:32.920Z,69.47
2018-12-09T07:24:01.065Z,68.60
2018-12-09T07:26:29.534Z,68.13
2018-12-09T07:28:57.746Z,66.35
2018-12-09T07:31:25.819Z,64.96
2018-12-09T07:33:53.946Z,68.99
2018-12-09T07:36:22.051Z,69.19
2018-12-09T07:38:50.336Z,73.22
2018-12-09T07:41:18.597Z,70.75
2018-12-09T07:43:46.674Z,70.50
2018-12-09T07:46:15.280Z,72.44
2018-12-09T07:48:43.671Z,72.23
2018-12-09T07:51:12.168Z,72.25
2018-12-09T07:53:40.336Z,74.41
2018-12-09T07:56:08.475Z,72.61
2018-12-09T07:58:36.544Z,74.43
2018-12-09T08:01:04.667Z,72.45
2018-12-09T08:03:32.722Z,71.39
2018-12-09T08:06:01.814Z,69.60
2018-12-09T08:08:29.959Z,70.86
2018-12-09T08:10:58.178Z,73.39
2018-12-09T08:13:26.539Z,72.12
2018-12-09T08:15:54.712Z,73.16
2018-12-09T08:18:22.819Z,73.58
2018-12-09T08:20:51.078Z,73.87
2018-12-09T08:23:19.303Z,72.91
2018-12-09T08:25:47.450Z,72.90
2018-12-09T08:28:15.480Z,74.41
2018-12-09T08:30:43.754Z,75.30
2018-12-09T08:33:11.901Z,75.82
2018-12-09T08:35:40.077Z,73.80
2018-12-09T08:38:08.235Z,76.90
2018-12-09T08:40:36.286Z,71.54
2018-12-09T08:43:04.517Z,72.52
2018-12-09T08:45:32.765Z,71.77
2018-12-09T08:48:00.827Z,74.86
2018-12-09T08:50:28.939Z,72.29
2018-12-09T08:52:57.387Z,73.40
2018-12-09T08:55:25.456Z,72.39
2018-12-09T08:57:53.527Z,72.51
2018-12-09T09:00:21.583Z,72.25
2018-12-09T09:02:49.824Z,74.43
2018-12-09T09:05:17.966Z,72.13
2018-12-09T09:07:46.118Z,73.58
2018-12-09T09:10:14.161Z,71.08
2018-12-09T09:12:42.213Z,69.65
2018-12-09T09:15:10.843Z,74.85
2018-12-09T09:17:38.890Z,71.19
2018-12-09T09:20:07.070Z,71.70
2018-12-09T09:22:36.400Z,71.69
2018-12-09T09:25:04.800Z,72.37
2018-12-09T09:27:42.132Z,71.73
2018-12-09T09:30:13.393Z,70.86
2018-12-09T09:32:41.533Z,70.94
2018-12-09T09:35:09.706Z,73.02
2018-12-09T09:37:38.293Z,72.24
2018-12-09T09:40:08.049Z,71.17
2018-12-09T09:42:38.125Z,73.03
2018-12-09T09:45:09.884Z,70.02
2018-12-09T09:47:38.061Z,71.59
2018-12-09T09:50:06.197Z,70.85
2018-12-09T09:52:37.397Z,70.19
2018-12-09T09:55:05.851Z,70.40
2018-12-09T09:57:34.067Z,71.59
2018-12-09T10:00:02.199Z,71.31
2018-12-09T10:02:32.128Z,71.62
2018-12-09T10:07:45.329Z,69.59
2018-12-09T10:10:20.503Z,70.07
2018-12-09T10:13:11.635Z,70.10
2018-12-09T10:15:51.377Z,70.07
2018-12-09T10:18:30.267Z,69.29
2018-12-09T10:21:11.646Z,68.07
2018-12-09T10:23:39.713Z,69.62
2018-12-09T10:26:07.810Z,67.22
2018-12-09T10:28:36.613Z,67.06
2018-12-09T10:31:07.085Z,67.80
2018-12-09T10:33:35.620Z,67.21
2018-12-09T10:36:03.722Z,67.03
2018-12-09T10:38:31.894Z,66.86
2018-12-09T10:41:00.857Z,66.27
2018-12-09T10:43:29.950Z,65.13
2018-12-09T10:45:57.991Z,66.47
2018-12-09T10:51:05.954Z,64.89
2018-12-09T10:53:34.091Z,64.71
2018-12-09T10:56:02.194Z,66.04
2018-12-09T10:58:30.229Z,66.60
2018-12-09T11:01:03.687Z,66.45
2018-12-09T11:03:31.731Z,67.26
2018-12-09T11:06:00.073Z,67.11
2018-12-09T11:08:28.136Z,67.84
2018-12-09T11:10:56.261Z,67.06
2018-12-09T11:13:24.339Z,65.69
2018-12-09T11:15:52.404Z,68.00
2018-12-09T11:18:20.469Z,68.37
2018-12-09T11:20:48.498Z,68.60
2018-12-09T11:23:16.554Z,68.66
2018-12-09T11:25:44.603Z,66.53
2018-12-09T11:28:12.811Z,67.27
2018-12-09T11:30:40.924Z,68.18
2018-12-09T11:33:08.982Z,65.53
2018-12-09T11:35:37.131Z,64.93
2018-12-09T11:38:05.179Z,65.50
2018-12-09T11:40:33.201Z,64.25
2018-12-09T11:43:01.314Z,64.69
2018-12-09T11:45:29.371Z,65.52
2018-12-09T11:47:57.422Z,66.17
2018-12-09T11:50:25.504Z,65.88
2018-12-09T11:52:53.554Z,67.56
2018-12-09T11:55:21.666Z,66.44
2018-12-09T11:57:49.719Z,66.16
2018-12-09T12:00:17.843Z,67.50
2018-12-09T12:02:45.877Z,66.47
2018-12-09T12:05:13.943Z,67.04
2018-12-09T12:07:42.050Z,66.95
2018-12-09T12:10:10.188Z,68.03
2018-12-09T12:12:38.322Z,68.86
2018-12-09T12:15:06.494Z,67.81
2018-12-09T12:17:34.521Z,65.65
2018-12-09T12:20:02.753Z,67.59
2018-12-09T12:22:30.776Z,64.60
2018-12-09T12:24:58.820Z,67.42
2018-12-09T12:27:26.911Z,69.10
2018-12-09T12:29:54.970Z,68.78
2018-12-09T12:35:03.697Z,68.76
2018-12-09T12:37:31.924Z,67.54
2018-12-09T12:40:00.034Z,69.76
2018-12-09T12:42:28.102Z,68.59
2018-12-09T12:44:56.205Z,66.79
2018-12-09T12:47:24.364Z,69.07
2018-12-09T12:49:52.520Z,70.00
2018-12-09T12:52:20.657Z,68.71
2018-12-09T12:54:48.794Z,68.30
2018-12-09T12:57:16.859Z,65.24
2018-12-09T12:59:44.999Z,65.54
2018-12-09T13:02:13.152Z,66.15
2018-12-09T13:04:41.199Z,67.42
2018-12-09T13:07:09.292Z,69.67
2018-12-09T13:09:37.366Z,68.06
2018-12-09T13:12:05.527Z,64.86
2018-12-09T13:14:33.561Z,63.55
2018-12-09T13:17:01.636Z,67.20
2018-12-09T13:19:29.714Z,68.16
2018-12-09T13:21:57.773Z,68.36
2018-12-09T13:24:25.871Z,68.21
2018-12-09T13:26:54.006Z,66.91
2018-12-09T13:29:22.113Z,66.57
2018-12-09T13:31:50.224Z,65.82
2018-12-09T13:36:59.888Z,65.43
2018-12-09T13:39:28.011Z,65.59
2018-12-09T13:41:56.145Z,63.67
2018-12-09T13:44:24.199Z,63.64
2018-12-09T13:46:52.523Z,63.56
2018-12-09T13:49:20.646Z,64.61
2018-12-09T13:51:48.746Z,65.90
2018-12-09T13:54:16.862Z,65.22
2018-12-09T13:56:44.928Z,66.76
2018-12-09T13:59:13.037Z,65.00
2018-12-09T14:01:41.098Z,67.77
2018-12-09T14:04:09.150Z,66.78
2018-12-09T14:06:37.286Z,65.45
2018-12-09T14:09:07.103Z,70.11
2018-12-09T14:11:35.213Z,68.74
2018-12-09T14:14:03.357Z,69.33
2018-12-09T14:16:31.490Z,71.00
2018-12-09T14:18:59.569Z,69.02
2018-12-09T14:21:28.729Z,70.25
2018-12-09T14:23:56.863Z,71.27
2018-12-09T14:26:24.965Z,69.09
2018-12-09T14:28:55.022Z,72.14
2018-12-09T14:31:23.206Z,69.23
2018-12-09T14:33:51.293Z,69.39
2018-12-09T14:36:19.342Z,68.66
2018-12-09T14:38:47.614Z,70.03
2018-12-09T14:41:16.757Z,69.17
2018-12-09T14:43:44.882Z,71.35
2018-12-09T14:46:12.943Z,68.30
2018-12-09T14:48:40.994Z,69.95
2018-12-09T14:51:09.057Z,71.16
2018-12-09T14:53:37.108Z,71.04
2018-12-09T14:56:05.182Z,67.49
2018-12-09T14:58:33.239Z,69.01
2018-12-09T15:01:01.376Z,67.22
2018-12-09T15:03:29.578Z,68.50
2018-12-09T15:05:57.708Z,68.18
2018-12-09T15:08:25.782Z,68.67
2018-12-09T15:10:53.957Z,69.34
2018-12-09T15:13:22.025Z,69.68
2018-12-09T15:15:50.236Z,70.93
2018-12-09T15:18:18.330Z,68.72
2018-12-09T15:20:46.411Z,68.92
2018-12-09T15:23:14.483Z,70.84
2018-12-09T15:25:42.589Z,67.93
2018-12-09T15:28:10.834Z,70.59
2018-12-09T15:30:38.967Z,71.74
2018-12-09T15:33:07.018Z,70.92
2018-12-09T15:35:35.154Z,73.40
2018-12-09T15:38:03.244Z,68.56
2018-12-09T15:40:31.289Z,70.00
2018-12-09T15:42:59.363Z,68.24
2018-12-09T15:45:27.385Z,67.97
2018-12-09T15:47:55.535Z,67.04
2018-12-09T15:50:23.592Z,71.33
2018-12-09T15:52:51.640Z,69.50
2018-12-09T15:55:19.783Z,72.35
2018-12-09T15:57:47.837Z,70.96
2018-12-09T16:00:15.958Z,73.33
2018-12-09T16:02:44.015Z,68.75
2018-12-09T16:05:12.122Z,69.95
2018-12-09T16:07:40.184Z,70.65
2018-12-09T16:10:09.827Z,69.79
2018-12-09T16:12:37.899Z,73.92
2018-12-09T16:15:06.558Z,68.46
2018-12-09T16:17:34.606Z,69.71
2018-12-09T16:20:02.683Z,69.68
2018-12-09T16:22:30.802Z,68.36
2018-12-09T16:24:59.197Z,68.89
2018-12-09T16:27:27.250Z,70.14
2018-12-09T16:29:55.340Z,70.12
2018-12-09T16:32:23.417Z,70.59
2018-12-09T16:34:51.526Z,70.90
2018-12-09T16:37:19.646Z,69.94
2018-12-09T16:39:47.740Z,71.96
2018-12-09T16:42:15.845Z,71.53
2018-12-09T16:44:43.887Z,70.37
2018-12-09T16:47:12.271Z,71.21
2018-12-09T16:49:40.342Z,70.61
2018-12-09T16:52:08.551Z,68.89
2018-12-09T16:54:36.594Z,71.00
2018-12-09T16:57:04.707Z,70.75
2018-12-09T16:59:32.770Z,69.19
2018-12-09T17:02:00.923Z,67.37
2018-12-09T17:04:28.981Z,68.73
2018-12-09T17:06:57.041Z,70.71
2018-12-09T17:09:25.161Z,68.88
2018-12-09T17:11:53.282Z,69.55
2018-12-09T17:14:21.783Z,69.79
2018-12-09T17:16:49.898Z,69.83
2018-12-09T17:19:17.973Z,71.92
2018-12-09T17:21:46.019Z,74.37
2018-12-09T17:24:14.118Z,70.77
2018-12-09T17:26:42.242Z,69.64
2018-12-09T17:31:51.775Z,70.46
2018-12-09T17:34:19.874Z,68.39
2018-12-09T17:36:47.933Z,68.96
2018-12-09T17:39:16.598Z,68.56
2018-12-09T17:41:44.726Z,69.97
2018-12-09T17:44:12.790Z,70.08
2018-12-09T17:46:40.917Z,69.50
2018-12-09T17:49:08.997Z,69.59
2018-12-09T17:51:37.183Z,68.04
2018-12-09T17:54:05.334Z,68.54
2018-12-09T17:56:33.402Z,68.33
2018-12-09T17:59:01.456Z,66.99
2018-12-09T18:01:29.542Z,68.98
2018-12-09T18:03:57.759Z,69.13
2018-12-09T18:06:25.834Z,69.62
2018-12-09T18:08:53.890Z,70.21
2018-12-09T18:11:22.028Z,71.05
2018-12-09T18:13:50.161Z,69.34
2018-12-09T18:16:18.387Z,68.97
2018-12-09T18:18:46.517Z,68.78
2018-12-09T18:21:14.713Z,69.94
2018-12-09T18:23:42.829Z,70.35
2018-12-09T18:26:10.917Z,69.22
2018-12-09T18:28:39.037Z,68.51
2018-12-09T18:31:07.211Z,71.68
2018-12-09T18:33:35.309Z,74.11
2018-12-09T18:36:03.440Z,71.55
2018-12-09T18:38:31.542Z,72.20
2018-12-09T18:40:59.715Z,73.35
2018-12-09T18:43:27.802Z,72.94
2018-12-09T18:45:55.885Z,73.70
2018-12-09T18:48:23.942Z,70.42
2018-12-09T18:50:52.014Z,70.16
2018-12-09T18:53:20.117Z,69.82
2018-12-09T18:55:48.282Z,67.36
2018-12-09T18:58:16.347Z,71.26
2018-12-09T19:00:44.602Z,69.63
2018-12-09T19:03:12.644Z,71.08
2018-12-09T19:05:40.853Z,71.05
2018-12-09T19:08:09.140Z,72.11
2018-12-09T19:10:37.355Z,72.32
2018-12-09T19:13:05.411Z,72.56
2018-12-09T19:15:33.538Z,69.15
2018-12-09T19:18:01.651Z,70.13
2018-12-09T19:20:30.890Z,72.62
2018-12-09T19:22:59.065Z,69.19
2018-12-09T19:25:27.184Z,71.00
2018-12-09T19:27:55.306Z,68.29
2018-12-09T19:30:23.480Z,68.55
2018-12-09T19:32:51.538Z,71.66
2018-12-09T19:35:19.729Z,70.32
2018-12-09T19:37:47.905Z,68.41
2018-12-09T19:40:16.394Z,68.37
2018-12-09T19:42:44.597Z,69.07
2018-12-09T19:45:12.651Z,70.61
2018-12-09T19:47:40.706Z,70.43
2018-12-09T19:50:08.874Z,69.50
2018-12-09T19:52:37.057Z,68.28
2018-12-09T19:55:05.317Z,68.64
2018-12-09T19:57:33.692Z,68.02
2018-12-09T20:00:01.783Z,67.00
2018-12-09T20:02:29.888Z,65.62
2018-12-09T20:04:57.957Z,65.55
2018-12-09T20:07:26.039Z,68.17
2018-12-09T20:09:54.154Z,69.03
2018-12-09T20:12:22.257Z,68.66
2018-12-09T20:14:50.364Z,69.41
2018-12-09T20:17:18.501Z,66.19
2018-12-09T20:19:46.636Z,69.26
2018-12-09T20:22:20.993Z,69.45
2018-12-09T20:24:50.080Z,69.25
2018-12-09T20:27:18.446Z,68.97
2018-12-09T20:29:46.507Z,69.89
2018-12-09T20:32:14.615Z,66.74
2018-12-09T20:34:42.770Z,66.37
2018-12-09T20:37:10.803Z,69.34
2018-12-09T20:39:38.845Z,69.35
2018-12-09T20:42:06.947Z,68.27
2018-12-09T20:44:35.071Z,67.69
2018-12-09T20:47:03.634Z,67.08
2018-12-09T20:49:31.671Z,68.81
2018-12-09T20:51:59.733Z,69.41
2018-12-09T20:54:27.806Z,68.20
2018-12-09T20:56:55.861Z,65.65
2018-12-09T20:59:24.046Z,63.95
2018-12-09T21:01:52.246Z,67.08
2018-12-09T21:04:20.379Z,67.52
2018-12-09T21:06:48.409Z,64.70
2018-12-09T21:09:16.488Z,66.33
2018-12-09T21:11:44.741Z,67.63
2018-12-09T21:14:12.846Z,68.14
2018-12-09T21:16:40.874Z,67.94
2018-12-09T21:19:09.019Z,70.24
2018-12-09T21:21:37.153Z,68.44
2018-12-09T21:24:05.217Z,68.92
2018-12-09T21:26:33.270Z,65.61
2018-12-09T21:29:01.553Z,68.56
2018-12-09T21:31:29.636Z,65.62
2018-12-09T21:33:58.046Z,66.38
2018-12-09T21:36:26.179Z,69.90
2018-12-09T21:38:54.367Z,66.89
2018-12-09T21:41:22.558Z,66.21
2018-12-09T21:43:50.677Z,67.43
2018-12-09T21:46:18.768Z,66.29
2018-12-09T21:48:46.863Z,64.77
2018-12-09T21:51:15.038Z,66.74
2018-12-09T21:53:43.099Z,65.98
2018-12-09T21:56:11.161Z,65.64
2018-12-09T21:58:39.225Z,66.67
2018-12-09T22:01:07.273Z,65.88
2018-12-09T22:03:35.346Z,64.72
2018-12-09T22:06:03.481Z,62.50
2018-12-09T22:08:33.104Z,65.33
2018-12-09T22:11:01.157Z,65.52
2018-12-09T22:13:29.326Z,66.56
2018-12-09T22:15:57.601Z,66.73
2018-12-09T22:18:25.751Z,65.72
2018-12-09T22:20:53.797Z,69.07
2018-12-09T22:23:21.874Z,67.38
2018-12-09T22:25:49.961Z,65.45
2018-12-09T22:28:18.001Z,67.37
2018-12-09T22:30:46.110Z,65.48
2018-12-09T22:33:14.149Z,65.71
2018-12-09T22:35:42.206Z,64.44
2018-12-09T22:38:10.250Z,65.28
2018-12-09T22:40:38.347Z,66.06
2018-12-09T22:43:06.448Z,65.13
2018-12-09T22:45:34.520Z,64.53
2018-12-09T22:48:02.568Z,65.71
2018-12-09T22:50:30.693Z,66.67
2018-12-09T22:52:58.849Z,67.78
2018-12-09T22:55:26.978Z,64.21
2018-12-09T22:57:55.363Z,67.14
2018-12-09T23:00:26.203Z,65.63
2018-12-09T23:02:59.770Z,65.41
2018-12-09T23:05:27.883Z,63.03
2018-12-09T23:07:56.302Z,64.16
2018-12-09T23:10:24.492Z,65.16
2018-12-09T23:12:52.662Z,65.15
2018-12-09T23:15:20.777Z,64.66
2018-12-09T23:17:48.913Z,66.14
2018-12-09T23:20:17.037Z,68.18
2018-12-09T23:22:45.160Z,67.59
2018-12-09T23:25:13.290Z,70.30
2018-12-09T23:27:41.447Z,69.02
2018-12-09T23:30:10.214Z,66.59
2018-12-09T23:32:38.338Z,67.70
2018-12-09T23:35:07.432Z,65.67
2018-12-09T23:37:35.627Z,65.19
2018-12-09T23:40:05.130Z,65.71
2018-12-09T23:42:33.165Z,64.25
2018-12-09T23:45:01.243Z,65.53
2018-12-09T23:47:29.312Z,65.40
2018-12-09T23:49:57.445Z,66.93
2018-12-09T23:52:25.506Z,66.48
2018-12-09T23:54:53.562Z,65.74
2018-12-09T23:57:21.666Z,65.97
2018-12-09T23:59:49.753Z,62.86
